createdAt,value
2023-05-06T00:01:44.047Z,0.50
2023-05-06T00:04:11.537Z,0.25
2023-05-06T00:06:39.245Z,0.00
2023-05-06T00:09:06.760Z,0.00
2023-05-06T00:11:34.252Z,1.00
2023-05-06T00:14:01.775Z,1.00
2023-05-06T00:16:34.591Z,1.00
2023-05-06T00:19:02.747Z,0.00
2023-05-06T00:21:30.438Z,0.25
2023-05-06T00:23:57.956Z,0.00
2023-05-06T00:26:25.382Z,0.50
2023-05-06T00:28:54.100Z,0.25
2023-05-06T00:31:21.740Z,0.00
2023-05-06T00:33:49.296Z,1.00
2023-05-06T00:36:16.875Z,0.00
2023-05-06T00:38:44.635Z,0.25
2023-05-06T00:41:12.122Z,1.00
2023-05-06T00:43:39.613Z,0.00
2023-05-06T00:46:11.746Z,1.50
2023-05-06T00:48:40.491Z,0.00
2023-05-06T00:51:08.546Z,1.00
2023-05-06T00:53:37.270Z,0.00
2023-05-06T00:56:05.734Z,2.00
2023-05-06T00:58:34.624Z,1.00
2023-05-06T01:01:03.374Z,0.50
2023-05-06T01:03:31.685Z,0.00
2023-05-06T01:06:13.089Z,0.00
2023-05-06T01:08:41.072Z,0.50
2023-05-06T01:11:15.915Z,1.00
2023-05-06T01:13:50.602Z,0.00
2023-05-06T01:16:20.718Z,0.25
2023-05-06T01:18:51.123Z,1.00
2023-05-06T01:21:20.528Z,0.00
2023-05-06T01:23:58.574Z,0.50
2023-05-06T01:26:27.245Z,1.00
2023-05-06T01:28:55.323Z,0.00
2023-05-06T01:31:43.686Z,0.75
2023-05-06T01:34:18.481Z,0.75
2023-05-06T01:36:50.852Z,0.50
2023-05-06T01:39:26.005Z,1.00
2023-05-06T01:41:57.938Z,0.00
2023-05-06T01:44:29.639Z,0.25
2023-05-06T01:46:58.580Z,0.25
2023-05-06T01:49:27.796Z,0.25
2023-05-06T01:51:56.025Z,0.00
2023-05-06T01:54:24.107Z,1.00
2023-05-06T01:56:51.639Z,0.00
2023-05-06T01:59:19.082Z,0.00
2023-05-06T02:01:46.604Z,1.00
2023-05-06T02:04:15.060Z,0.00
2023-05-06T02:06:42.797Z,0.25
2023-05-06T02:09:12.262Z,0.75
2023-05-06T02:11:43.946Z,0.00
2023-05-06T02:14:12.424Z,0.75
2023-05-06T02:16:40.026Z,0.75
2023-05-06T02:19:07.499Z,0.00
2023-05-06T02:21:35.056Z,1.00
2023-05-06T02:24:02.682Z,3.00
2023-05-06T02:26:30.083Z,3.00
2023-05-06T02:28:58.232Z,0.75
2023-05-06T02:31:28.873Z,0.25
2023-05-06T02:33:56.488Z,0.00
2023-05-06T02:36:23.976Z,2.50
2023-05-06T02:38:51.648Z,1.00
2023-05-06T02:41:19.191Z,1.00
2023-05-06T02:43:46.888Z,1.00
2023-05-06T02:46:14.382Z,1.00
2023-05-06T02:48:42.234Z,1.00
2023-05-06T02:51:09.836Z,1.00
2023-05-06T02:53:37.384Z,1.00
2023-05-06T02:56:05.248Z,0.00
2023-05-06T02:58:32.836Z,1.50
2023-05-06T03:01:00.359Z,1.00
2023-05-06T03:03:27.854Z,1.00
2023-05-06T03:05:55.181Z,0.00
2023-05-06T03:08:22.907Z,1.00
2023-05-06T03:10:51.139Z,1.50
2023-05-06T03:13:21.038Z,2.00
2023-05-06T03:15:54.933Z,1.50
2023-05-06T03:18:22.847Z,1.50
2023-05-06T03:20:51.369Z,0.50
2023-05-06T03:23:19.626Z,1.00
2023-05-06T03:25:47.901Z,1.00
2023-05-06T03:28:15.667Z,0.75
2023-05-06T03:30:45.652Z,0.00
2023-05-06T03:33:13.889Z,0.75
2023-05-06T03:35:42.197Z,2.00
2023-05-06T03:38:09.866Z,4.00
2023-05-06T03:40:48.456Z,4.00
2023-05-06T03:43:17.032Z,3.50
2023-05-06T03:45:47.754Z,3.00
2023-05-06T03:48:15.652Z,2.75
2023-05-06T03:50:44.915Z,1.00
2023-05-06T03:53:13.791Z,1.50
2023-05-06T03:55:43.538Z,1.00
2023-05-06T03:58:12.707Z,3.25
2023-05-06T04:00:42.111Z,4.00
2023-05-06T04:03:09.844Z,1.00
2023-05-06T04:05:43.377Z,1.00
2023-05-06T04:08:13.546Z,3.00
2023-05-06T04:10:41.502Z,2.00
2023-05-06T04:13:18.455Z,0.00
2023-05-06T04:15:46.895Z,1.00
2023-05-06T04:18:20.321Z,0.50
2023-05-06T04:20:57.370Z,1.00
2023-05-06T04:23:26.016Z,1.00
2023-05-06T04:25:53.544Z,1.00
2023-05-06T04:28:23.651Z,1.00
2023-05-06T04:30:53.117Z,2.00
2023-05-06T04:33:24.688Z,3.00
2023-05-06T04:35:56.742Z,1.00
2023-05-06T04:38:27.527Z,1.00
2023-05-06T04:40:55.734Z,1.00
2023-05-06T04:43:23.324Z,1.00
2023-05-06T04:45:56.992Z,1.00
2023-05-06T04:48:28.870Z,0.80
2023-05-06T04:50:59.103Z,1.00
2023-05-06T04:53:26.408Z,0.60
2023-05-06T04:55:56.107Z,0.20
2023-05-06T04:58:23.847Z,1.00
2023-05-06T05:00:51.804Z,1.00
2023-05-06T05:03:19.315Z,1.20
2023-05-06T05:05:47.152Z,1.00
2023-05-06T05:08:18.692Z,1.00
2023-05-06T05:10:46.320Z,1.00
2023-05-06T05:13:18.267Z,1.00
2023-05-06T05:15:46.284Z,0.40
2023-05-06T05:18:15.209Z,2.00
2023-05-06T05:20:44.172Z,1.00
2023-05-06T05:23:13.634Z,1.00
2023-05-06T05:25:43.578Z,1.00
2023-05-06T05:28:11.735Z,0.50
2023-05-06T05:30:40.198Z,1.25
2023-05-06T05:33:09.773Z,0.00
2023-05-06T05:35:38.122Z,1.00
2023-05-06T05:38:06.320Z,0.00
2023-05-06T05:40:34.303Z,1.00
2023-05-06T05:43:01.868Z,1.00
2023-05-06T05:45:34.928Z,0.75
2023-05-06T05:48:02.782Z,1.00
2023-05-06T05:50:30.214Z,1.00
2023-05-06T05:52:58.819Z,0.75
2023-05-06T05:55:29.574Z,0.00
2023-05-06T05:57:57.416Z,1.00
2023-05-06T06:00:27.463Z,0.00
2023-05-06T06:03:02.392Z,0.00
2023-05-06T06:05:30.249Z,1.00
2023-05-06T06:07:59.410Z,0.00
2023-05-06T06:10:28.246Z,0.00
2023-05-06T06:12:56.612Z,0.00
2023-05-06T06:15:29.788Z,0.00
2023-05-06T06:17:57.487Z,0.00
2023-05-06T06:20:27.158Z,0.00
2023-05-06T06:22:54.847Z,0.50
2023-05-06T06:25:22.432Z,0.00
2023-05-06T06:27:49.881Z,0.00
2023-05-06T06:30:17.617Z,0.00
2023-05-06T06:32:50.590Z,0.00
2023-05-06T06:35:19.480Z,0.25
2023-05-06T06:37:47.444Z,0.00
2023-05-06T06:40:15.802Z,0.00
2023-05-06T06:42:43.641Z,0.00
2023-05-06T06:45:29.478Z,0.00
2023-05-06T06:47:57.135Z,0.00
2023-05-06T06:50:24.767Z,0.00
2023-05-06T06:52:52.344Z,0.00
2023-05-06T06:55:20.088Z,0.00
2023-05-06T06:57:47.859Z,0.00
2023-05-06T07:00:15.924Z,0.00
2023-05-06T07:02:43.312Z,0.00
2023-05-06T07:05:11.350Z,0.00
2023-05-06T07:07:38.936Z,0.00
2023-05-06T07:10:07.050Z,0.00
2023-05-06T07:12:34.655Z,0.00
2023-05-06T07:15:05.190Z,0.00
2023-05-06T07:17:35.338Z,0.00
2023-05-06T07:20:03.048Z,0.00
2023-05-06T07:22:30.544Z,0.00
2023-05-06T07:24:58.162Z,0.00
2023-05-06T07:27:27.775Z,0.00
2023-05-06T07:29:55.333Z,0.00
2023-05-06T07:32:23.026Z,0.00
2023-05-06T07:34:50.569Z,0.00
2023-05-06T07:37:18.146Z,0.00
2023-05-06T07:39:46.626Z,0.00
2023-05-06T07:42:14.720Z,0.00
2023-05-06T07:44:42.342Z,0.00
2023-05-06T07:47:10.084Z,0.00
2023-05-06T07:49:37.741Z,0.00
2023-05-06T07:52:05.400Z,0.00
2023-05-06T07:54:34.006Z,0.00
2023-05-06T07:57:01.379Z,0.00
2023-05-06T07:59:28.793Z,0.00
2023-05-06T08:01:56.535Z,0.00
2023-05-06T08:04:24.194Z,0.00
2023-05-06T08:06:51.719Z,0.00
2023-05-06T08:09:22.978Z,0.00
2023-05-06T08:11:51.491Z,0.00
2023-05-06T08:14:18.973Z,0.00
2023-05-06T08:16:46.617Z,0.00
2023-05-06T08:19:14.211Z,0.00
2023-05-06T08:21:41.865Z,0.00
2023-05-06T08:24:10.836Z,0.00
2023-05-06T08:26:38.474Z,0.00
2023-05-06T08:29:07.509Z,0.00
2023-05-06T08:31:35.362Z,0.00
2023-05-06T08:34:02.965Z,0.00
2023-05-06T08:36:30.353Z,0.00
2023-05-06T08:38:57.977Z,0.00
2023-05-06T08:41:27.725Z,0.00
2023-05-06T08:43:56.118Z,0.00
2023-05-06T08:46:25.211Z,0.00
2023-05-06T08:48:53.923Z,0.00
2023-05-06T08:51:28.996Z,0.00
2023-05-06T08:54:02.844Z,0.00
2023-05-06T08:56:34.346Z,0.00
2023-05-06T08:59:02.526Z,0.00
2023-05-06T09:01:29.811Z,0.00
2023-05-06T09:03:58.631Z,0.00
2023-05-06T09:06:27.482Z,0.00
2023-05-06T09:08:55.174Z,0.00
2023-05-06T09:11:25.485Z,0.00
2023-05-06T09:14:20.996Z,0.00
2023-05-06T09:16:51.344Z,0.00
2023-05-06T09:19:21.128Z,0.00
2023-05-06T09:21:50.798Z,0.00
2023-05-06T09:24:19.236Z,0.00
2023-05-06T09:26:47.578Z,0.00
2023-05-06T09:29:15.330Z,0.00
2023-05-06T09:31:45.129Z,0.00
2023-05-06T09:34:13.795Z,0.00
2023-05-06T09:36:41.278Z,0.00
2023-05-06T09:39:10.316Z,0.00
2023-05-06T09:41:38.001Z,0.25
2023-05-06T09:44:06.439Z,0.00
2023-05-06T09:46:33.884Z,0.00
2023-05-06T09:49:01.725Z,0.00
2023-05-06T09:51:31.274Z,0.00
2023-05-06T09:53:59.473Z,0.00
2023-05-06T09:56:27.121Z,0.00
2023-05-06T09:58:56.174Z,0.00
2023-05-06T10:01:35.276Z,0.00
2023-05-06T10:04:09.191Z,0.00
2023-05-06T10:06:39.881Z,0.00
2023-05-06T10:09:09.456Z,0.00
2023-05-06T10:11:37.057Z,0.00
2023-05-06T10:14:04.716Z,0.00
2023-05-06T10:16:36.239Z,0.00
2023-05-06T10:19:06.898Z,0.00
2023-05-06T10:21:39.618Z,0.00
2023-05-06T10:24:11.684Z,0.00
2023-05-06T10:26:41.103Z,0.50
2023-05-06T10:29:10.565Z,0.00
2023-05-06T10:31:59.610Z,1.25
2023-05-06T10:34:32.369Z,0.75
2023-05-06T10:37:00.700Z,0.25
2023-05-06T10:39:28.185Z,1.00
2023-05-06T10:41:55.682Z,0.00
2023-05-06T10:44:57.939Z,0.00
2023-05-06T10:47:26.016Z,0.00
2023-05-06T10:50:19.025Z,0.00
2023-05-06T10:52:47.428Z,0.00
2023-05-06T10:55:27.552Z,0.00
2023-05-06T10:57:57.107Z,0.00
2023-05-06T11:00:24.558Z,0.00
2023-05-06T11:02:57.232Z,0.00
2023-05-06T11:05:25.453Z,1.00
2023-05-06T11:07:53.402Z,5.00
2023-05-06T11:10:34.075Z,0.75
2023-05-06T11:13:21.533Z,0.00
2023-05-06T11:15:52.162Z,0.50
2023-05-06T11:18:25.989Z,0.00
2023-05-06T11:21:03.757Z,0.00
2023-05-06T11:23:55.390Z,10.20
2023-05-06T11:26:25.093Z,0.00
2023-05-06T11:28:52.484Z,0.00
2023-05-06T11:31:21.756Z,0.00
2023-05-06T11:33:52.699Z,1.00
2023-05-06T11:36:21.372Z,0.00
2023-05-06T11:38:50.512Z,0.00
2023-05-06T11:41:18.683Z,0.00
2023-05-06T11:43:50.272Z,0.00
2023-05-06T11:46:21.732Z,0.00
2023-05-06T11:48:50.596Z,0.00
2023-05-06T11:51:26.983Z,0.00
2023-05-06T11:54:11.312Z,0.25
2023-05-06T11:56:52.654Z,0.00
2023-05-06T11:59:28.595Z,0.00
2023-05-06T12:01:58.682Z,0.00
2023-05-06T12:04:27.669Z,0.00
2023-05-06T12:06:57.208Z,0.00
2023-05-06T12:09:25.446Z,1.00
2023-05-06T12:11:53.236Z,0.25
2023-05-06T12:14:21.061Z,0.00
2023-05-06T12:16:48.639Z,0.00
2023-05-06T12:19:19.198Z,0.00
2023-05-06T12:21:46.644Z,0.00
2023-05-06T12:24:14.184Z,0.00
2023-05-06T12:26:49.568Z,0.00
2023-05-06T12:29:18.116Z,0.00
2023-05-06T12:31:49.480Z,1.80
2023-05-06T12:34:18.638Z,0.20
2023-05-06T12:36:47.340Z,0.20
2023-05-06T12:39:14.893Z,0.00
2023-05-06T12:41:44.795Z,0.00
2023-05-06T12:44:33.919Z,0.00
2023-05-06T12:47:22.505Z,1.40
2023-05-06T12:49:54.939Z,0.80
2023-05-06T12:52:23.834Z,0.00
2023-05-06T12:54:54.569Z,0.00
2023-05-06T12:57:22.704Z,0.00
2023-05-06T12:59:50.308Z,0.00
2023-05-06T13:02:17.864Z,0.80
2023-05-06T13:04:47.050Z,0.00
2023-05-06T13:07:14.685Z,0.00
2023-05-06T13:09:41.956Z,0.00
2023-05-06T13:12:09.353Z,0.00
2023-05-06T13:14:39.223Z,0.00
2023-05-06T13:17:08.023Z,0.00
2023-05-06T13:19:36.079Z,0.00
2023-05-06T13:22:03.404Z,0.40
2023-05-06T13:24:30.968Z,0.00
2023-05-06T13:27:01.093Z,1.00
2023-05-06T13:29:29.668Z,1.00
2023-05-06T13:31:57.157Z,0.00
2023-05-06T13:34:24.752Z,0.00
2023-05-06T13:36:54.820Z,0.20
2023-05-06T13:39:22.783Z,0.00
2023-05-06T13:41:51.147Z,1.00
2023-05-06T13:44:19.998Z,0.40
2023-05-06T13:46:48.386Z,0.00
2023-05-06T13:49:16.003Z,1.00
2023-05-06T13:51:43.413Z,0.00
2023-05-06T13:54:11.141Z,0.00
2023-05-06T13:56:38.832Z,0.00
2023-05-06T13:59:08.339Z,0.00
2023-05-06T14:01:36.687Z,0.80
2023-05-06T14:04:04.081Z,0.00
2023-05-06T14:06:31.676Z,0.60
2023-05-06T14:08:58.987Z,0.00
2023-05-06T14:11:26.323Z,0.00
2023-05-06T14:13:55.268Z,1.00
2023-05-06T14:16:22.758Z,0.40
2023-05-06T14:18:50.147Z,1.00
2023-05-06T14:21:17.428Z,0.60
2023-05-06T14:23:44.637Z,0.20
2023-05-06T14:26:11.907Z,0.00
2023-05-06T14:28:39.142Z,0.00
2023-05-06T14:31:06.470Z,0.20
2023-05-06T14:33:33.705Z,0.00
2023-05-06T14:36:03.539Z,0.00
2023-05-06T14:38:31.570Z,0.00
2023-05-06T14:40:59.642Z,0.00
2023-05-06T14:43:26.928Z,0.00
2023-05-06T14:45:54.350Z,0.00
2023-05-06T14:48:21.579Z,0.00
2023-05-06T14:50:48.861Z,0.00
2023-05-06T14:53:16.205Z,0.00
2023-05-06T14:55:43.537Z,0.00
2023-05-06T14:58:10.847Z,0.00
2023-05-06T15:00:38.266Z,0.00
2023-05-06T15:03:05.547Z,0.00
2023-05-06T15:05:32.966Z,0.00
2023-05-06T15:08:00.173Z,0.00
2023-05-06T15:10:27.470Z,0.20
2023-05-06T15:12:54.781Z,0.00
2023-05-06T15:15:22.240Z,0.00
2023-05-06T15:17:52.466Z,0.00
2023-05-06T15:20:20.142Z,0.00
2023-05-06T15:22:47.403Z,0.00
2023-05-06T15:25:30.356Z,0.00
2023-05-06T15:28:01.400Z,0.00
2023-05-06T15:30:28.629Z,1.00
2023-05-06T15:32:56.060Z,0.00
2023-05-06T15:35:23.551Z,0.00
2023-05-06T15:37:59.058Z,0.00
2023-05-06T15:40:27.038Z,0.00
2023-05-06T15:42:54.558Z,0.00
2023-05-06T15:45:22.858Z,0.00
2023-05-06T15:47:50.465Z,0.00
2023-05-06T15:50:31.759Z,0.00
2023-05-06T15:53:01.824Z,0.40
2023-05-06T15:55:29.993Z,0.40
2023-05-06T15:57:59.914Z,0.00
2023-05-06T16:00:28.244Z,0.00
2023-05-06T16:02:55.692Z,0.00
2023-05-06T16:05:23.169Z,1.00
2023-05-06T16:07:50.670Z,0.00
2023-05-06T16:10:17.924Z,0.20
2023-05-06T16:12:45.322Z,0.40
2023-05-06T16:15:12.701Z,0.00
2023-05-06T16:17:40.783Z,0.00
2023-05-06T16:20:11.639Z,0.00
2023-05-06T16:22:40.181Z,0.00
2023-05-06T16:25:07.708Z,1.00
2023-05-06T16:27:35.649Z,0.00
2023-05-06T16:30:02.958Z,1.80
2023-05-06T16:32:30.300Z,0.00
2023-05-06T16:34:59.501Z,0.80
2023-05-06T16:37:26.862Z,0.40
2023-05-06T16:39:54.081Z,0.00
2023-05-06T16:42:21.304Z,0.00
2023-05-06T16:44:48.719Z,0.00
2023-05-06T16:47:16.212Z,1.00
2023-05-06T16:49:43.539Z,0.00
2023-05-06T16:52:10.999Z,0.00
2023-05-06T16:54:38.250Z,0.20
2023-05-06T16:57:06.014Z,0.00
2023-05-06T16:59:34.075Z,0.20
2023-05-06T17:02:01.571Z,1.00
2023-05-06T17:04:28.879Z,0.00
2023-05-06T17:06:56.315Z,0.40
2023-05-06T17:09:23.606Z,0.00
2023-05-06T17:11:51.048Z,0.00
2023-05-06T17:14:20.089Z,0.60
2023-05-06T17:16:47.869Z,1.00
2023-05-06T17:19:15.233Z,0.00
2023-05-06T17:21:42.950Z,0.00
2023-05-06T17:24:10.245Z,0.80
2023-05-06T17:26:38.972Z,0.00
2023-05-06T17:29:06.750Z,0.00
2023-05-06T17:31:34.097Z,0.20
2023-05-06T17:34:01.869Z,0.20
2023-05-06T17:36:29.388Z,0.60
2023-05-06T17:39:05.828Z,1.20
2023-05-06T17:41:33.960Z,0.00
2023-05-06T17:44:01.845Z,0.00
2023-05-06T17:46:29.745Z,0.60
2023-05-06T17:48:57.410Z,0.00
2023-05-06T17:51:24.978Z,0.00
2023-05-06T17:53:52.554Z,0.00
2023-05-06T17:56:20.549Z,0.20
2023-05-06T17:58:48.124Z,0.00
2023-05-06T18:01:15.765Z,0.60
2023-05-06T18:03:44.161Z,0.00
2023-05-06T18:06:12.822Z,0.00
2023-05-06T18:08:40.068Z,0.00
2023-05-06T18:11:07.412Z,0.20
2023-05-06T18:13:36.974Z,0.40
2023-05-06T18:16:05.251Z,0.00
2023-05-06T18:18:32.453Z,0.60
2023-05-06T18:20:59.875Z,1.00
2023-05-06T18:23:27.316Z,0.00
2023-05-06T18:25:54.673Z,0.00
2023-05-06T18:28:21.892Z,0.00
2023-05-06T18:30:49.100Z,0.00
2023-05-06T18:33:16.531Z,0.00
2023-05-06T18:35:43.885Z,0.20
2023-05-06T18:38:11.741Z,1.00
2023-05-06T18:40:40.246Z,0.00
2023-05-06T18:43:10.405Z,0.00
2023-05-06T18:45:38.019Z,1.60
2023-05-06T18:48:05.753Z,0.20
2023-05-06T18:50:33.050Z,1.00
2023-05-06T18:53:00.540Z,0.00
2023-05-06T18:55:28.045Z,12.80
2023-05-06T18:57:55.405Z,3.40
2023-05-06T19:00:22.884Z,3.80
2023-05-06T19:02:50.332Z,4.40
2023-05-06T19:05:17.804Z,4.00
2023-05-06T19:07:45.049Z,1.00
2023-05-06T19:10:14.061Z,1.40
2023-05-06T19:12:41.910Z,1.00
2023-05-06T19:15:10.363Z,2.00
2023-05-06T19:17:38.050Z,1.00
2023-05-06T19:20:06.043Z,2.80
2023-05-06T19:22:33.232Z,0.00
2023-05-06T19:25:00.647Z,1.00
2023-05-06T19:27:28.146Z,0.00
2023-05-06T19:29:55.433Z,1.00
2023-05-06T19:32:22.781Z,1.00
2023-05-06T19:34:50.083Z,1.00
2023-05-06T19:37:17.281Z,0.80
2023-05-06T19:39:46.744Z,0.40
2023-05-06T19:42:13.977Z,2.00
2023-05-06T19:44:41.246Z,2.00
2023-05-06T19:47:08.449Z,1.00
2023-05-06T19:49:35.985Z,0.00
2023-05-06T19:52:03.237Z,0.40
2023-05-06T19:54:30.509Z,1.00
2023-05-06T19:56:57.781Z,1.00
2023-05-06T19:59:25.081Z,1.00
2023-05-06T20:01:53.475Z,0.00
2023-05-06T20:04:20.941Z,1.00
2023-05-06T20:06:48.201Z,0.20
2023-05-06T20:09:15.526Z,0.20
2023-05-06T20:11:42.756Z,2.00
2023-05-06T20:14:10.087Z,1.00
2023-05-06T20:16:37.396Z,1.20
2023-05-06T20:19:05.020Z,2.00
2023-05-06T20:21:32.338Z,0.00
2023-05-06T20:23:59.598Z,1.00
2023-05-06T20:26:26.776Z,1.00
2023-05-06T20:28:54.457Z,2.40
2023-05-06T20:31:21.767Z,4.00
2023-05-06T20:33:49.065Z,2.80
2023-05-06T20:36:16.302Z,1.00
2023-05-06T20:38:43.713Z,1.60
2023-05-06T20:41:11.006Z,0.00
2023-05-06T20:43:38.416Z,2.00
2023-05-06T20:46:06.857Z,1.40
2023-05-06T20:48:34.247Z,4.20
2023-05-06T20:51:01.660Z,3.60
2023-05-06T20:53:28.954Z,4.00
2023-05-06T20:55:56.177Z,3.60
2023-05-06T20:58:25.527Z,5.40
2023-05-06T21:00:52.769Z,4.00
2023-05-06T21:03:20.116Z,2.00
2023-05-06T21:05:47.477Z,2.00
2023-05-06T21:08:15.717Z,5.40
2023-05-06T21:10:43.222Z,3.20
2023-05-06T21:13:10.627Z,4.60
2023-05-06T21:15:39.750Z,4.00
2023-05-06T21:18:08.029Z,1.00
2023-05-06T21:20:35.926Z,4.00
2023-05-06T21:23:04.250Z,1.60
2023-05-06T21:25:31.933Z,2.00
2023-05-06T21:28:03.564Z,4.20
2023-05-06T21:30:31.478Z,2.60
2023-05-06T21:32:59.031Z,1.00
2023-05-06T21:35:26.953Z,4.60
2023-05-06T21:37:54.675Z,8.00
2023-05-06T21:40:22.104Z,28.40
2023-05-06T21:42:49.928Z,24.80
2023-05-06T21:45:18.038Z,26.20
2023-05-06T21:47:46.270Z,14.60
2023-05-06T21:50:14.104Z,21.00
2023-05-06T21:52:41.974Z,16.00
2023-05-06T21:55:09.903Z,6.20
2023-05-06T21:57:37.614Z,4.00
2023-05-06T22:00:12.393Z,7.00
2023-05-06T22:02:41.040Z,6.20
2023-05-06T22:05:09.213Z,4.00
2023-05-06T22:07:37.277Z,2.00
2023-05-06T22:10:06.410Z,14.00
2023-05-06T22:12:36.784Z,11.20
2023-05-06T22:15:04.925Z,15.00
2023-05-06T22:17:33.091Z,24.20
2023-05-06T22:20:04.648Z,13.60
2023-05-06T22:22:32.548Z,10.80
2023-05-06T22:25:00.972Z,7.20
2023-05-06T22:27:28.524Z,5.00
2023-05-06T22:29:56.481Z,0.80
2023-05-06T22:32:23.871Z,0.00
2023-05-06T22:34:51.454Z,0.80
2023-05-06T22:37:19.562Z,1.60
2023-05-06T22:39:47.981Z,0.00
2023-05-06T22:42:15.693Z,2.00
2023-05-06T22:44:43.542Z,2.20
2023-05-06T22:47:11.357Z,1.60
2023-05-06T22:49:39.202Z,2.00
2023-05-06T22:52:07.203Z,2.20
2023-05-06T22:54:34.916Z,1.00
2023-05-06T22:57:02.650Z,1.00
2023-05-06T22:59:30.460Z,1.80
2023-05-06T23:01:58.257Z,1.00
2023-05-06T23:04:25.805Z,4.80
2023-05-06T23:06:53.447Z,19.80
2023-05-06T23:09:21.049Z,3.00
2023-05-06T23:11:48.556Z,3.00
2023-05-06T23:14:17.623Z,2.60
2023-05-06T23:16:45.142Z,5.40
2023-05-06T23:19:12.734Z,3.40
2023-05-06T23:21:44.127Z,1.00
2023-05-06T23:24:12.595Z,2.20
2023-05-06T23:26:40.200Z,3.00
2023-05-06T23:29:07.682Z,2.60
2023-05-06T23:31:35.226Z,1.40
2023-05-06T23:34:03.085Z,3.00
2023-05-06T23:36:31.001Z,2.60
2023-05-06T23:38:58.622Z,1.20
2023-05-06T23:41:26.133Z,2.20
2023-05-06T23:43:53.647Z,3.00
2023-05-06T23:46:21.341Z,3.00
2023-05-06T23:48:48.882Z,1.00
2023-05-06T23:51:16.566Z,1.00
2023-05-06T23:53:44.128Z,0.50
2023-05-06T23:56:11.842Z,3.00
2023-05-06T23:58:39.371Z,0.75
